Time;durP1;ratioP1;P1;durP2;ratioP2;P2;SDS_P1;SDS_P2;PMS_P1;PMS_P2;Temp;Humidity;BMP_temperature;BMP_pressure;BME280_temperature;BME280_humidity;BME280_pressure;Samples;Min_cycle;Max_cycle;Signal;HPM_P1;HPM_P2
2021/08/04 00:02:04;;;;;;;;;;;21.40;74.50;;;;;;5032692;28;1060;-68
2021/08/04 00:04:29;;;;;;;;;;;21.40;74.50;;;;;;5014044;28;1825;-67
2021/08/04 00:06:55;;;;;;;;;;;21.40;74.50;;;;;;5032272;28;1151;-68
2021/08/04 00:09:20;;;;;;;;;;;21.40;74.50;;;;;;5031987;28;1084;-68
2021/08/04 00:11:45;;;;;;;;;;;21.40;74.50;;;;;;5032432;28;1146;-68
2021/08/04 00:14:11;;;;;;;;;;;21.40;74.50;;;;;;5031385;28;1691;-67
2021/08/04 00:16:37;;;;;;;;;;;21.40;74.50;;;;;;5035682;28;1979;-68
2021/08/04 00:19:03;;;;;;;;;;;21.40;74.50;;;;;;5035924;28;1107;-68
2021/08/04 00:21:28;;;;;;;;;;;21.40;74.50;;;;;;5018379;28;1144;-68
2021/08/04 00:23:54;;;;;;;;;;;21.30;74.40;;;;;;5036031;28;1084;-68
2021/08/04 00:26:19;;;;;;;;;;;21.40;74.50;;;;;;5017626;28;1220;-68
2021/08/04 00:28:45;;;;;;;;;;;21.40;74.50;;;;;;5036189;28;1104;-67
2021/08/04 00:31:10;;;;;;;;;;;21.40;74.50;;;;;;5035862;28;1111;-68
2021/08/04 00:33:36;;;;;;;;;;;21.40;74.50;;;;;;5035633;28;1089;-67
2021/08/04 00:36:01;;;;;;;;;;;21.40;74.90;;;;;;5017742;28;1975;-68
2021/08/04 00:38:26;;;;;;;;;;;21.40;74.60;;;;;;5035832;28;1143;-68
2021/08/04 00:40:52;;;;;;;;;;;21.40;74.50;;;;;;5036412;28;1056;-67
2021/08/04 00:43:17;;;;;;;;;;;21.40;74.50;;;;;;5035523;28;1068;-67
2021/08/04 00:45:43;;;;;;;;;;;21.40;74.60;;;;;;5034992;28;1353;-68
2021/08/04 00:48:08;;;;;;;;;;;21.40;74.50;;;;;;5035878;28;1053;-68
2021/08/04 00:50:33;;;;;;;;;;;21.40;74.50;;;;;;5018062;28;1175;-68
2021/08/04 00:52:59;;;;;;;;;;;21.40;74.50;;;;;;5023962;28;1080;-68
2021/08/04 00:55:24;;;;;;;;;;;21.30;74.50;;;;;;5017679;28;1977;-68
2021/08/04 00:57:50;;;;;;;;;;;21.30;74.50;;;;;;5036001;28;1175;-68
2021/08/04 01:00:15;;;;;;;;;;;21.40;74.70;;;;;;5035356;28;1120;-67
2021/08/04 01:02:43;;;;;;;;;;;21.40;74.60;;;;;;5017664;28;1204;-67
2021/08/04 01:05:13;;;;;;;;;;;21.40;74.60;;;;;;5016992;28;1287;-67
2021/08/04 01:07:42;;;;;;;;;;;21.40;74.50;;;;;;5018071;28;1183;-68
2021/08/04 01:10:11;;;;;;;;;;;21.40;74.50;;;;;;5017770;28;1061;-68
2021/08/04 01:12:40;;;;;;;;;;;21.40;74.50;;;;;;5035283;28;1116;-68
2021/08/04 01:15:06;;;;;;;;;;;21.40;74.60;;;;;;5016404;28;1899;-68
2021/08/04 01:17:31;;;;;;;;;;;21.40;74.60;;;;;;5017515;28;1160;-68
2021/08/04 01:20:15;;;;;;;;;;;21.40;74.60;;;;;;5017595;28;1013;-68
2021/08/04 01:22:46;;;;;;;;;;;21.40;74.60;;;;;;5035164;28;1112;-68
2021/08/04 01:25:14;;;;;;;;;;;21.40;74.60;;;;;;5016164;28;1323;-68
2021/08/04 01:27:40;;;;;;;;;;;21.40;74.60;;;;;;5016440;28;1152;-68
2021/08/04 01:30:06;;;;;;;;;;;21.40;74.60;;;;;;5017084;28;1336;-68
2021/08/04 01:32:31;;;;;;;;;;;21.30;74.60;;;;;;5017687;28;1127;-67
2021/08/04 01:34:56;;;;;;;;;;;21.40;74.60;;;;;;5042274;28;2156;-68
2021/08/04 01:37:22;;;;;;;;;;;21.40;74.60;;;;;;5017094;28;930;-68
2021/08/04 01:39:48;;;;;;;;;;;21.30;74.50;;;;;;5017429;28;1073;-68
2021/08/04 01:42:13;;;;;;;;;;;21.40;74.60;;;;;;5017066;28;1131;-68
2021/08/04 01:44:39;;;;;;;;;;;21.40;74.60;;;;;;5034135;28;1342;-68
2021/08/04 01:47:04;;;;;;;;;;;21.30;74.60;;;;;;5033723;28;1145;-68
2021/08/04 01:49:29;;;;;;;;;;;21.40;75.30;;;;;;5033378;28;1103;-68
2021/08/04 01:51:55;;;;;;;;;;;21.40;74.60;;;;;;5010215;28;1132;-68
2021/08/04 01:54:20;;;;;;;;;;;21.30;74.50;;;;;;5028174;28;1139;-68
2021/08/04 01:56:46;;;;;;;;;;;21.30;74.50;;;;;;5016322;28;1978;-67
2021/08/04 01:59:11;;;;;;;;;;;21.30;74.50;;;;;;5016914;28;1064;-68
2021/08/04 02:01:37;;;;;;;;;;;21.40;74.60;;;;;;5034278;28;998;-68
2021/08/04 02:04:02;;;;;;;;;;;21.40;74.70;;;;;;5033729;28;1143;-67
2021/08/04 02:06:29;;;;;;;;;;;21.40;74.70;;;;;;5016617;28;1290;-68
2021/08/04 02:09:02;;;;;;;;;;;21.30;74.60;;;;;;5016923;28;1286;-68
2021/08/04 02:11:46;;;;;;;;;;;21.40;74.60;;;;;;5016531;28;1091;-67
2021/08/04 02:14:15;;;;;;;;;;;21.30;74.50;;;;;;5033679;28;1052;-67
2021/08/04 02:17:00;;;;;;;;;;;21.40;74.60;;;;;;5016182;28;1895;-67
2021/08/04 02:19:46;;;;;;;;;;;21.40;74.70;;;;;;5033503;28;1138;-68
2021/08/04 02:22:14;;;;;;;;;;;21.30;75.00;;;;;;5002454;28;1096;-67
2021/08/04 02:24:41;;;;;;;;;;;21.30;74.70;;;;;;5033273;28;1363;-68
2021/08/04 02:27:06;;;;;;;;;;;21.40;74.70;;;;;;5015955;28;1217;-68
2021/08/04 02:29:33;;;;;;;;;;;21.40;74.70;;;;;;5016255;28;1061;-68
2021/08/04 02:31:59;;;;;;;;;;;21.40;74.60;;;;;;5015964;28;1160;-68
2021/08/04 02:34:25;;;;;;;;;;;21.30;74.60;;;;;;5015051;28;1271;-68
2021/08/04 02:36:50;;;;;;;;;;;21.40;74.70;;;;;;5015919;28;1906;-68
2021/08/04 02:39:16;;;;;;;;;;;21.40;74.70;;;;;;5033451;28;1135;-68
2021/08/04 02:41:41;;;;;;;;;;;21.40;74.70;;;;;;5033303;28;1095;-68
2021/08/04 02:44:06;;;;;;;;;;;21.40;74.70;;;;;;5015276;28;1296;-67
2021/08/04 02:46:32;;;;;;;;;;;21.40;74.70;;;;;;5015391;28;1372;-68
2021/08/04 02:48:57;;;;;;;;;;;21.30;74.60;;;;;;5033798;28;1104;-68
2021/08/04 02:51:23;;;;;;;;;;;21.40;74.70;;;;;;5013480;28;1159;-68
2021/08/04 02:53:55;;;;;;;;;;;21.40;74.70;;;;;;5024429;28;1077;-67
2021/08/04 02:56:20;;;;;;;;;;;21.40;74.70;;;;;;5032636;28;1906;-68
2021/08/04 02:58:46;;;;;;;;;;;21.30;74.70;;;;;;5033375;28;1068;-68
2021/08/04 03:01:11;;;;;;;;;;;21.30;74.60;;;;;;5033070;28;1223;-68
2021/08/04 03:03:36;;;;;;;;;;;21.40;74.70;;;;;;5033376;28;1217;-68
2021/08/04 03:06:02;;;;;;;;;;;21.40;74.70;;;;;;5032228;28;1286;-68
2021/08/04 03:08:27;;;;;;;;;;;21.30;74.70;;;;;;5032997;28;1139;-68
2021/08/04 03:10:53;;;;;;;;;;;21.30;74.70;;;;;;5033151;28;1143;-68
2021/08/04 03:13:18;;;;;;;;;;;21.40;74.70;;;;;;5033270;28;1131;-68
2021/08/04 03:15:43;;;;;;;;;;;21.40;74.70;;;;;;5032028;28;1964;-68
2021/08/04 03:18:09;;;;;;;;;;;21.30;74.70;;;;;;5033056;28;1131;-68
2021/08/04 03:20:34;;;;;;;;;;;21.40;74.70;;;;;;5033197;28;1084;-67
2021/08/04 03:23:00;;;;;;;;;;;21.40;74.80;;;;;;5032687;28;1136;-68
2021/08/04 03:25:25;;;;;;;;;;;21.30;74.70;;;;;;5031947;28;1351;-68
2021/08/04 03:27:51;;;;;;;;;;;21.40;75.50;;;;;;5032692;28;1174;-67
2021/08/04 03:30:16;;;;;;;;;;;21.30;74.70;;;;;;5032683;28;1103;-67
2021/08/04 03:32:41;;;;;;;;;;;21.40;74.80;;;;;;5032658;28;1080;-68
2021/08/04 03:35:07;;;;;;;;;;;21.40;74.70;;;;;;5014393;28;1918;-67
2021/08/04 03:37:33;;;;;;;;;;;21.30;74.70;;;;;;5032901;28;1056;-68
2021/08/04 03:39:58;;;;;;;;;;;21.30;74.70;;;;;;5032444;28;1227;-68
2021/08/04 03:42:24;;;;;;;;;;;21.40;74.80;;;;;;5032529;28;1096;-68
2021/08/04 03:44:49;;;;;;;;;;;21.30;74.70;;;;;;5031805;28;1312;-68
2021/08/04 03:47:14;;;;;;;;;;;21.40;74.70;;;;;;5032642;28;1115;-68
2021/08/04 03:49:40;;;;;;;;;;;21.40;74.80;;;;;;5031966;28;1162;-68
2021/08/04 03:52:05;;;;;;;;;;;21.30;74.70;;;;;;5024250;28;1056;-68
2021/08/04 03:54:31;;;;;;;;;;;21.30;74.70;;;;;;5028031;28;1913;-68
2021/08/04 03:56:56;;;;;;;;;;;21.40;74.80;;;;;;5032338;28;1100;-67
2021/08/04 03:59:23;;;;;;;;;;;21.30;74.70;;;;;;5014623;28;1069;-67
2021/08/04 04:01:49;;;;;;;;;;;21.30;74.70;;;;;;5032425;28;1080;-68
2021/08/04 04:04:14;;;;;;;;;;;21.40;74.80;;;;;;5031309;28;1049;-68
2021/08/04 04:06:39;;;;;;;;;;;21.40;74.80;;;;;;5032324;28;1187;-67
2021/08/04 04:09:05;;;;;;;;;;;21.40;74.80;;;;;;5032455;28;1147;-68
2021/08/04 04:11:30;;;;;;;;;;;21.40;74.80;;;;;;5032089;28;1044;-68
2021/08/04 04:13:56;;;;;;;;;;;21.30;74.70;;;;;;5032077;28;1135;-67
2021/08/04 04:16:22;;;;;;;;;;;21.40;74.80;;;;;;5031526;28;1906;-68
2021/08/04 04:18:48;;;;;;;;;;;21.30;74.70;;;;;;5014727;28;1152;-68
2021/08/04 04:21:13;;;;;;;;;;;21.30;74.80;;;;;;5014834;28;1085;-68
2021/08/04 04:23:39;;;;;;;;;;;21.40;74.80;;;;;;5032306;28;1123;-68
2021/08/04 04:26:04;;;;;;;;;;;21.30;74.80;;;;;;5031606;28;1224;-68
2021/08/04 04:28:30;;;;;;;;;;;21.30;74.70;;;;;;5032199;28;1060;-68
2021/08/04 04:30:55;;;;;;;;;;;21.30;74.80;;;;;;5014097;28;1143;-68
2021/08/04 04:33:21;;;;;;;;;;;21.30;74.80;;;;;;5031641;28;1052;-68
2021/08/04 04:35:46;;;;;;;;;;;21.30;74.80;;;;;;5031601;28;1975;-68
2021/08/04 04:38:12;;;;;;;;;;;21.30;74.80;;;;;;5032126;28;1076;-68
2021/08/04 04:40:37;;;;;;;;;;;21.40;74.80;;;;;;5032398;28;1052;-68
2021/08/04 04:43:02;;;;;;;;;;;21.30;74.80;;;;;;5031551;28;1175;-68
2021/08/04 04:45:28;;;;;;;;;;;21.40;74.80;;;;;;5031423;28;1304;-68
2021/08/04 04:47:53;;;;;;;;;;;21.40;74.80;;;;;;5031775;28;1147;-68
2021/08/04 04:50:19;;;;;;;;;;;21.30;74.80;;;;;;5032148;28;1131;-68
2021/08/04 04:52:44;;;;;;;;;;;21.40;74.90;;;;;;5019539;28;1142;-68
2021/08/04 04:55:10;;;;;;;;;;;21.30;74.80;;;;;;5013595;28;1906;-68
2021/08/04 04:57:35;;;;;;;;;;;21.30;74.80;;;;;;5013933;28;1139;-68
2021/08/04 05:00:01;;;;;;;;;;;21.40;74.90;;;;;;5031863;28;1017;-68
2021/08/04 05:02:26;;;;;;;;;;;21.30;74.80;;;;;;5034856;28;1048;-68
2021/08/04 05:04:52;;;;;;;;;;;21.30;74.80;;;;;;5035584;28;1440;-68
2021/08/04 05:07:17;;;;;;;;;;;21.30;74.90;;;;;;5017779;28;1131;-68
2021/08/04 05:09:42;;;;;;;;;;;21.30;74.80;;;;;;5035426;28;1060;-68
2021/08/04 05:12:08;;;;;;;;;;;21.40;74.90;;;;;;5017268;28;1344;-68
2021/08/04 05:14:33;;;;;;;;;;;21.40;74.90;;;;;;5016910;28;1223;-67
2021/08/04 05:16:59;;;;;;;;;;;21.30;74.80;;;;;;5040331;22;3577;-74
2021/08/04 05:19:24;;;;;;;;;;;21.30;74.80;;;;;;4988804;28;983;-73
2021/08/04 05:21:50;;;;;;;;;;;21.30;74.80;;;;;;5015346;28;1112;-73
2021/08/04 05:24:15;;;;;;;;;;;21.30;74.80;;;;;;5014771;28;1069;-73
2021/08/04 05:26:40;;;;;;;;;;;21.30;74.90;;;;;;5008745;28;1237;-74
2021/08/04 05:29:06;;;;;;;;;;;21.40;75.00;;;;;;5015310;28;1061;-71
2021/08/04 05:31:31;;;;;;;;;;;21.30;74.80;;;;;;5015106;28;1060;-73
2021/08/04 05:33:57;;;;;;;;;;;21.40;74.90;;;;;;5015739;28;1096;-73
2021/08/04 05:36:22;;;;;;;;;;;21.30;74.50;;;;;;5014927;28;1902;-71
2021/08/04 05:38:48;;;;;;;;;;;21.30;73.00;;;;;;5014859;28;1105;-72
2021/08/04 05:41:13;;;;;;;;;;;21.30;73.70;;;;;;5015109;28;989;-72
2021/08/04 05:43:38;;;;;;;;;;;21.30;74.80;;;;;;5014054;28;1176;-73
2021/08/04 05:46:04;;;;;;;;;;;21.30;73.60;;;;;;5013479;28;1208;-73
2021/08/04 05:48:29;;;;;;;;;;;21.40;74.10;;;;;;5015006;28;1092;-72
2021/08/04 05:50:55;;;;;;;;;;;21.30;74.70;;;;;;5015264;28;1171;-72
2021/08/04 05:53:20;;;;;;;;;;;21.30;74.70;;;;;;5013171;28;1239;-72
2021/08/04 05:55:45;;;;;;;;;;;21.30;74.40;;;;;;5015128;28;1948;-70
2021/08/04 05:58:11;;;;;;;;;;;21.40;74.40;;;;;;5008907;28;1335;-70
2021/08/04 06:00:36;;;;;;;;;;;21.30;74.40;;;;;;5014877;28;1111;-71
2021/08/04 06:03:02;;;;;;;;;;;21.30;74.10;;;;;;5015131;28;1164;-71
2021/08/04 06:05:27;;;;;;;;;;;21.30;74.40;;;;;;5014000;28;1265;-69
2021/08/04 06:07:53;;;;;;;;;;;21.40;74.30;;;;;;5014214;28;1135;-71
2021/08/04 06:10:18;;;;;;;;;;;21.40;74.40;;;;;;5014750;28;1131;-71
2021/08/04 06:12:44;;;;;;;;;;;21.30;74.10;;;;;;5012457;28;1251;-71
2021/08/04 06:15:09;;;;;;;;;;;21.30;74.20;;;;;;5014006;28;1959;-72
2021/08/04 06:17:35;;;;;;;;;;;21.30;74.50;;;;;;5013013;28;1291;-72
2021/08/04 06:20:00;;;;;;;;;;;21.30;74.40;;;;;;5013203;28;1131;-71
2021/08/04 06:22:25;;;;;;;;;;;21.30;74.30;;;;;;5014318;28;1171;-74
2021/08/04 06:24:51;;;;;;;;;;;21.40;74.20;;;;;;5014515;28;1135;-72
2021/08/04 06:27:16;;;;;;;;;;;21.40;74.30;;;;;;5013900;28;1221;-73
2021/08/04 06:29:42;;;;;;;;;;;21.40;74.20;;;;;;5012797;28;1049;-72
2021/08/04 06:32:07;;;;;;;;;;;21.40;74.10;;;;;;5014234;28;1329;-72
2021/08/04 06:34:33;;;;;;;;;;;21.40;73.80;;;;;;5013361;28;1139;-72
2021/08/04 06:36:58;;;;;;;;;;;21.30;74.10;;;;;;5012433;28;1966;-72
2021/08/04 06:39:23;;;;;;;;;;;21.40;74.20;;;;;;5014146;28;1123;-70
2021/08/04 06:41:49;;;;;;;;;;;21.40;74.20;;;;;;5013726;28;1084;-71
2021/08/04 06:44:14;;;;;;;;;;;21.40;74.10;;;;;;5012976;28;1127;-73
2021/08/04 06:46:40;;;;;;;;;;;21.40;73.90;;;;;;5014023;28;1385;-73
2021/08/04 06:49:05;;;;;;;;;;;21.40;74.10;;;;;;5014252;28;1144;-71
2021/08/04 06:51:31;;;;;;;;;;;21.40;73.80;;;;;;5013402;28;1092;-71
2021/08/04 06:53:56;;;;;;;;;;;21.40;73.80;;;;;;4996211;28;1311;-72
2021/08/04 06:56:22;;;;;;;;;;;21.30;73.60;;;;;;5012913;28;1971;-72
2021/08/04 06:58:47;;;;;;;;;;;21.40;73.70;;;;;;5012992;28;1212;-71
2021/08/04 07:01:13;;;;;;;;;;;21.40;73.50;;;;;;5012316;28;1861;-73
2021/08/04 07:03:38;;;;;;;;;;;21.40;73.60;;;;;;5013653;28;1659;-72
2021/08/04 07:06:08;;;;;;;;;;;21.30;73.50;;;;;;5004449;28;1367;-72
2021/08/04 07:08:34;;;;;;;;;;;21.30;73.60;;;;;;5005926;28;1319;-72
2021/08/04 07:10:59;;;;;;;;;;;21.40;74.00;;;;;;5006705;28;1276;-71
2021/08/04 07:13:25;;;;;;;;;;;21.40;74.30;;;;;;5005387;28;1840;-72
2021/08/04 07:15:51;;;;;;;;;;;21.40;74.40;;;;;;5003915;28;1906;-72
2021/08/04 07:18:16;;;;;;;;;;;21.40;74.60;;;;;;5006207;28;1264;-71
2021/08/04 07:20:41;;;;;;;;;;;21.40;74.70;;;;;;5013099;28;1085;-71
2021/08/04 07:23:07;;;;;;;;;;;21.50;74.70;;;;;;4992372;28;1347;-72
2021/08/04 07:25:32;;;;;;;;;;;21.50;74.60;;;;;;5007807;28;1307;-71
2021/08/04 07:27:58;;;;;;;;;;;21.50;74.60;;;;;;5013208;28;1104;-73
2021/08/04 07:30:25;;;;;;;;;;;21.50;74.60;;;;;;5011874;28;1101;-72
2021/08/04 07:32:50;;;;;;;;;;;21.50;74.60;;;;;;5011885;28;1616;-73
2021/08/04 07:35:15;;;;;;;;;;;21.50;74.60;;;;;;5011297;28;1891;-72
2021/08/04 07:37:41;;;;;;;;;;;21.50;74.60;;;;;;5012772;28;1152;-72
2021/08/04 07:40:07;;;;;;;;;;;21.50;74.70;;;;;;4998391;28;2152;-72
2021/08/04 07:42:33;;;;;;;;;;;21.50;74.70;;;;;;5011740;28;1133;-71
2021/08/04 07:44:58;;;;;;;;;;;21.50;74.70;;;;;;5010570;28;1287;-72
2021/08/04 07:47:24;;;;;;;;;;;21.50;74.90;;;;;;5013016;28;1077;-72
2021/08/04 07:49:49;;;;;;;;;;;21.50;74.90;;;;;;5011916;28;1124;-71
2021/08/04 07:52:14;;;;;;;;;;;21.50;75.00;;;;;;5011345;28;1148;-73
2021/08/04 07:54:40;;;;;;;;;;;21.50;75.00;;;;;;5011998;28;1164;-73
2021/08/04 07:57:06;;;;;;;;;;;21.50;75.00;;;;;;5012431;28;1174;-72
2021/08/04 07:59:31;;;;;;;;;;;21.50;75.10;;;;;;5012598;28;1104;-73
2021/08/04 08:01:56;;;;;;;;;;;21.50;75.10;;;;;;5012432;28;1077;-72
2021/08/04 08:04:22;;;;;;;;;;;21.60;75.20;;;;;;5011809;28;1068;-72
2021/08/04 08:06:48;;;;;;;;;;;21.50;75.30;;;;;;5012260;28;1248;-72
2021/08/04 08:09:18;;;;;;;;;;;21.50;75.40;;;;;;5012598;28;1116;-71
2021/08/04 08:11:44;;;;;;;;;;;21.50;75.60;;;;;;5013041;28;1033;-72
2021/08/04 08:14:09;;;;;;;;;;;21.50;76.10;;;;;;5011624;28;1129;-73
2021/08/04 08:16:35;;;;;;;;;;;21.60;76.00;;;;;;5012509;28;1940;-72
2021/08/04 08:19:00;;;;;;;;;;;21.60;76.20;;;;;;5011530;28;1081;-71
2021/08/04 08:21:26;;;;;;;;;;;21.60;76.50;;;;;;5013241;28;1406;-72
2021/08/04 08:23:51;;;;;;;;;;;21.60;76.40;;;;;;5013052;28;1354;-71
2021/08/04 08:26:17;;;;;;;;;;;21.60;76.30;;;;;;5011253;28;1293;-72
2021/08/04 08:28:42;;;;;;;;;;;21.60;76.40;;;;;;5011475;28;1714;-70
2021/08/04 08:31:08;;;;;;;;;;;21.60;76.40;;;;;;5012856;28;1404;-69
2021/08/04 08:33:33;;;;;;;;;;;21.60;77.20;;;;;;5013012;28;1638;-73
2021/08/04 08:35:59;;;;;;;;;;;21.60;76.50;;;;;;5012639;28;1973;-71
2021/08/04 08:38:24;;;;;;;;;;;21.60;76.50;;;;;;5015424;28;1739;-73
2021/08/04 08:40:50;;;;;;;;;;;21.60;76.50;;;;;;5015671;28;1389;-73
2021/08/04 08:43:16;;;;;;;;;;;21.60;76.50;;;;;;5019713;28;1411;-72
2021/08/04 08:45:42;;;;;;;;;;;21.60;76.50;;;;;;5018247;28;1525;-72
2021/08/04 08:48:07;;;;;;;;;;;21.60;76.50;;;;;;5018133;28;1724;-70
2021/08/04 08:50:33;;;;;;;;;;;21.60;76.50;;;;;;5000344;28;1353;-72
2021/08/04 08:52:58;;;;;;;;;;;21.60;76.40;;;;;;5016456;28;1414;-72
2021/08/04 08:55:24;;;;;;;;;;;21.60;76.40;;;;;;5015758;28;1902;-71
2021/08/04 08:57:49;;;;;;;;;;;21.60;76.40;;;;;;5016464;28;1452;-72
2021/08/04 09:00:15;;;;;;;;;;;21.60;76.40;;;;;;5016509;28;1442;-72
2021/08/04 09:02:40;;;;;;;;;;;21.60;76.40;;;;;;5016606;28;1637;-71
2021/08/04 09:05:06;;;;;;;;;;;21.60;76.50;;;;;;5015445;28;1679;-71
2021/08/04 09:07:41;;;;;;;;;;;21.60;76.40;;;;;;5015177;28;1729;-71
2021/08/04 09:10:19;;;;;;;;;;;21.60;76.60;;;;;;5016495;28;1080;-73
2021/08/04 09:12:51;;;;;;;;;;;21.60;76.90;;;;;;5015947;28;1060;-72
2021/08/04 09:15:26;;;;;;;;;;;21.60;77.10;;;;;;5013800;28;1921;-72
2021/08/04 09:18:08;;;;;;;;;;;21.70;76.80;;;;;;5016308;28;1041;-73
2021/08/04 09:20:53;;;;;;;;;;;21.70;77.00;;;;;;5015971;28;1052;-72
2021/08/04 09:23:23;;;;;;;;;;;21.70;77.30;;;;;;5016361;28;1120;-72
2021/08/04 09:26:00;;;;;;;;;;;21.70;77.20;;;;;;5015479;28;1287;-73
2021/08/04 09:28:26;;;;;;;;;;;21.70;77.30;;;;;;5017925;28;1103;-74
2021/08/04 09:30:58;;;;;;;;;;;21.70;77.30;;;;;;5013617;28;2142;-72
2021/08/04 09:33:26;;;;;;;;;;;21.70;77.30;;;;;;5015696;28;1159;-72
2021/08/04 09:35:52;;;;;;;;;;;21.70;77.30;;;;;;5013318;28;1907;-71
2021/08/04 09:38:18;;;;;;;;;;;21.70;77.50;;;;;;5015398;28;1077;-72
2021/08/04 09:40:44;;;;;;;;;;;21.70;77.50;;;;;;5014228;28;1061;-73
2021/08/04 09:43:10;;;;;;;;;;;21.70;77.70;;;;;;5014803;28;1120;-72
2021/08/04 09:45:39;;;;;;;;;;;21.70;77.80;;;;;;5015116;28;1303;-70
2021/08/04 09:48:11;;;;;;;;;;;21.70;77.80;;;;;;5013881;28;1322;-72
2021/08/04 09:50:53;;;;;;;;;;;21.70;77.70;;;;;;5015595;28;1116;-73
2021/08/04 09:53:25;;;;;;;;;;;21.70;78.00;;;;;;5014264;28;1213;-72
2021/08/04 09:56:02;;;;;;;;;;;21.70;78.00;;;;;;5015337;28;1894;-74
2021/08/04 09:58:27;;;;;;;;;;;21.70;77.80;;;;;;5007610;28;1441;-72
2021/08/04 10:00:52;;;;;;;;;;;21.70;78.00;;;;;;5008084;28;1252;-71
2021/08/04 10:03:18;;;;;;;;;;;21.70;77.80;;;;;;5014406;28;1064;-70
2021/08/04 10:05:44;;;;;;;;;;;21.70;77.80;;;;;;5013657;28;1254;-71
2021/08/04 10:08:10;;;;;;;;;;;21.70;78.00;;;;;;5012824;28;1378;-70
2021/08/04 10:10:39;;;;;;;;;;;21.70;78.00;;;;;;5012629;28;1101;-71
2021/08/04 10:13:05;;;;;;;;;;;21.70;78.90;;;;;;5013759;28;1088;-72
2021/08/04 10:15:32;;;;;;;;;;;21.70;78.20;;;;;;5011907;28;2000;-70
2021/08/04 10:17:57;;;;;;;;;;;21.70;78.20;;;;;;5013479;28;1084;-71
2021/08/04 10:20:22;;;;;;;;;;;21.70;78.10;;;;;;5014133;28;1168;-71
2021/08/04 10:22:48;;;;;;;;;;;21.70;78.00;;;;;;5014293;28;1033;-72
2021/08/04 10:25:14;;;;;;;;;;;21.70;78.20;;;;;;5011625;28;1235;-72
2021/08/04 10:27:39;;;;;;;;;;;21.70;78.20;;;;;;5012122;28;1092;-73
2021/08/04 10:30:08;;;;;;;;;;;21.70;78.00;;;;;;5012114;28;1179;-70
2021/08/04 10:32:34;;;;;;;;;;;21.80;78.00;;;;;;5012665;28;1287;-70
2021/08/04 10:34:59;;;;;;;;;;;21.80;78.10;;;;;;5011586;28;1902;-70
2021/08/04 10:37:25;;;;;;;;;;;21.80;78.10;;;;;;5012059;28;1088;-71
2021/08/04 10:39:50;;;;;;;;;;;21.80;78.10;;;;;;5011886;28;1113;-73
2021/08/04 10:42:15;;;;;;;;;;;21.80;77.90;;;;;;5014422;28;1137;-73
2021/08/04 10:44:42;;;;;;;;;;;21.80;77.90;;;;;;5013924;28;1093;-74
2021/08/04 10:47:23;;;;;;;;;;;21.80;77.80;;;;;;5013760;28;1272;-74
2021/08/04 10:49:56;;;;;;;;;;;21.80;77.80;;;;;;5014903;28;1097;-74
2021/08/04 10:52:21;;;;;;;;;;;21.70;77.60;;;;;;4998479;28;1355;-74
2021/08/04 10:55:00;;;;;;;;;;;21.70;77.80;;;;;;5014763;28;1308;-72
2021/08/04 10:57:26;;;;;;;;;;;21.70;77.70;;;;;;5014486;28;1160;-73
2021/08/04 10:59:51;;;;;;;;;;;21.70;77.70;;;;;;4997931;28;1559;-73
2021/08/04 11:02:26;;;;;;;;;;;21.70;77.70;;;;;;4998418;28;1312;-73
2021/08/04 11:04:52;;;;;;;;;;;21.70;77.80;;;;;;5015817;28;1064;-73
2021/08/04 11:07:19;;;;;;;;;;;21.70;77.90;;;;;;4998435;28;1395;-74
2021/08/04 11:09:45;;;;;;;;;;;21.70;78.00;;;;;;4997628;28;1323;-74
2021/08/04 11:12:15;;;;;;;;;;;21.70;78.20;;;;;;5016557;28;1127;-74
2021/08/04 11:14:47;;;;;;;;;;;21.70;78.20;;;;;;5012315;28;1104;-75
2021/08/04 11:17:31;;;;;;;;;;;21.70;78.20;;;;;;5013848;28;1886;-75
2021/08/04 11:19:56;;;;;;;;;;;21.70;78.40;;;;;;5011597;28;1168;-74
2021/08/04 11:22:22;;;;;;;;;;;21.70;78.40;;;;;;5012532;28;1053;-73
2021/08/04 11:24:54;;;;;;;;;;;21.70;78.20;;;;;;5011022;28;1073;-75
2021/08/04 11:27:20;;;;;;;;;;;21.80;79.00;;;;;;5011671;28;1316;-73
2021/08/04 11:29:46;;;;;;;;;;;21.80;78.70;;;;;;5012586;28;1072;-73
2021/08/04 11:32:21;;;;;;;;;;;21.80;78.70;;;;;;5008546;28;1978;-73
2021/08/04 11:34:47;;;;;;;;;;;21.80;79.00;;;;;;5001269;28;1322;-71
2021/08/04 11:37:12;;;;;;;;;;;21.80;79.00;;;;;;5009925;28;1906;-73
2021/08/04 11:40:04;;;;;;;;;;;21.80;79.10;;;;;;5013131;28;1156;-72
2021/08/04 11:42:30;;;;;;;;;;;21.80;79.20;;;;;;5010503;28;1195;-71
2021/08/04 11:45:02;;;;;;;;;;;21.80;79.10;;;;;;5011887;28;1155;-71
2021/08/04 11:47:28;;;;;;;;;;;21.80;79.20;;;;;;5012619;28;1111;-71
2021/08/04 11:49:53;;;;;;;;;;;21.80;79.10;;;;;;5011509;28;1181;-70
2021/08/04 11:52:19;;;;;;;;;;;21.80;78.90;;;;;;4994540;28;1082;-71
2021/08/04 11:54:49;;;;;;;;;;;21.80;79.10;;;;;;5011741;28;1120;-70
2021/08/04 11:57:23;;;;;;;;;;;21.80;79.10;;;;;;4992120;28;1941;-70
2021/08/04 11:59:49;;;;;;;;;;;21.80;79.10;;;;;;5000305;28;1084;-71
2021/08/04 12:02:15;;;;;;;;;;;21.80;79.00;;;;;;5011137;28;1167;-72
2021/08/04 12:04:44;;;;;;;;;;;21.80;79.20;;;;;;5011610;28;1151;-71
2021/08/04 12:07:09;;;;;;;;;;;21.80;79.10;;;;;;5012167;28;1186;-72
2021/08/04 12:09:35;;;;;;;;;;;21.90;79.20;;;;;;5012358;28;1068;-71
2021/08/04 12:12:02;;;;;;;;;;;21.90;79.20;;;;;;5012125;28;1053;-71
2021/08/04 12:14:27;;;;;;;;;;;21.90;79.10;;;;;;5011588;28;1084;-72
2021/08/04 12:16:54;;;;;;;;;;;21.90;79.10;;;;;;5010843;28;1911;-72
2021/08/04 12:19:33;;;;;;;;;;;21.90;79.10;;;;;;5011300;28;1077;-72
2021/08/04 12:21:59;;;;;;;;;;;21.90;79.00;;;;;;5012057;28;1179;-72
2021/08/04 12:24:24;;;;;;;;;;;21.90;78.70;;;;;;5010555;28;1097;-72
2021/08/04 12:26:50;;;;;;;;;;;21.90;78.70;;;;;;5010737;28;1421;-71
2021/08/04 12:29:33;;;;;;;;;;;21.90;78.80;;;;;;5000554;28;1598;-71
2021/08/04 12:31:59;;;;;;;;;;;21.90;78.90;;;;;;5010633;28;977;-70
2021/08/04 12:34:25;;;;;;;;;;;21.90;79.00;;;;;;5011042;28;1100;-70
2021/08/04 12:36:54;;;;;;;;;;;21.80;78.90;;;;;;5009631;28;1965;-70
2021/08/04 12:39:20;;;;;;;;;;;21.80;79.00;;;;;;5011454;28;1135;-70
2021/08/04 12:41:45;;;;;;;;;;;21.80;78.90;;;;;;5009677;28;1153;-69
2021/08/04 12:44:17;;;;;;;;;;;21.80;79.00;;;;;;5010019;28;1364;-70
2021/08/04 12:46:42;;;;;;;;;;;21.80;79.10;;;;;;5010780;28;1271;-70
2021/08/04 12:49:17;;;;;;;;;;;21.80;79.20;;;;;;5011067;28;1140;-70
2021/08/04 12:51:55;;;;;;;;;;;21.80;79.30;;;;;;5010628;28;1180;-70
2021/08/04 12:54:28;;;;;;;;;;;21.80;79.50;;;;;;5011344;28;1085;-70
2021/08/04 12:56:53;;;;;;;;;;;21.80;79.40;;;;;;4994661;28;1890;-70
2021/08/04 12:59:19;;;;;;;;;;;21.80;79.40;;;;;;5010640;28;1109;-70
2021/08/04 13:01:45;;;;;;;;;;;21.80;79.30;;;;;;4993885;28;1874;-70
2021/08/04 13:04:14;;;;;;;;;;;21.80;79.40;;;;;;5009138;28;2248;-69
2021/08/04 13:06:47;;;;;;;;;;;21.80;79.20;;;;;;5004148;28;1585;-70
2021/08/04 13:09:13;;;;;;;;;;;21.80;79.40;;;;;;5011531;28;930;-70
2021/08/04 13:11:38;;;;;;;;;;;21.80;79.50;;;;;;5005664;28;1123;-70
2021/08/04 13:14:06;;;;;;;;;;;21.80;79.50;;;;;;5012191;28;1112;-71
2021/08/04 13:16:35;;;;;;;;;;;21.90;79.40;;;;;;5010565;28;1948;-71
2021/08/04 13:19:01;;;;;;;;;;;21.90;79.50;;;;;;5010638;28;1151;-71
2021/08/04 13:21:26;;;;;;;;;;;21.90;79.30;;;;;;5009965;28;1323;-70
2021/08/04 13:23:52;;;;;;;;;;;21.90;79.40;;;;;;5012637;28;1132;-70
2021/08/04 13:26:21;;;;;;;;;;;21.80;79.30;;;;;;5013308;28;1397;-70
2021/08/04 13:28:48;;;;;;;;;;;21.90;79.30;;;;;;5014019;28;1128;-70
2021/08/04 13:31:17;;;;;;;;;;;21.90;79.30;;;;;;4997699;28;1193;-69
2021/08/04 13:33:43;;;;;;;;;;;21.90;79.20;;;;;;5000662;28;1357;-69
2021/08/04 13:36:09;;;;;;;;;;;21.90;79.20;;;;;;5011665;28;1914;-70
2021/08/04 13:38:34;;;;;;;;;;;21.90;79.30;;;;;;5014266;28;1076;-70
2021/08/04 13:41:00;;;;;;;;;;;21.90;79.00;;;;;;5012618;28;1108;-69
2021/08/04 13:43:25;;;;;;;;;;;21.90;79.00;;;;;;5013864;28;1171;-69
2021/08/04 13:45:51;;;;;;;;;;;21.90;79.20;;;;;;5013623;28;1304;-71
2021/08/04 13:48:16;;;;;;;;;;;21.90;79.30;;;;;;5012117;28;1088;-70
2021/08/04 13:50:42;;;;;;;;;;;21.90;79.30;;;;;;5012720;28;1092;-68
2021/08/04 13:53:07;;;;;;;;;;;21.90;79.30;;;;;;5012234;28;1077;-69
2021/08/04 13:55:33;;;;;;;;;;;21.90;79.30;;;;;;5013007;28;1956;-69
2021/08/04 13:57:59;;;;;;;;;;;21.90;79.30;;;;;;5013502;28;1033;-69
2021/08/04 14:00:25;;;;;;;;;;;21.90;79.30;;;;;;5012386;28;1057;-69
2021/08/04 14:02:50;;;;;;;;;;;21.90;79.30;;;;;;5007945;28;1924;-70
2021/08/04 14:05:16;;;;;;;;;;;21.90;79.30;;;;;;5013398;28;1290;-71
2021/08/04 14:07:41;;;;;;;;;;;21.90;79.30;;;;;;5002482;28;1288;-71
2021/08/04 14:10:07;;;;;;;;;;;21.90;79.20;;;;;;5008613;28;1056;-70
2021/08/04 14:12:33;;;;;;;;;;;21.90;79.30;;;;;;5009915;28;1104;-69
2021/08/04 14:14:58;;;;;;;;;;;21.90;79.30;;;;;;5012377;28;1906;-71
2021/08/04 14:17:24;;;;;;;;;;;21.90;79.30;;;;;;5013024;28;981;-71
2021/08/04 14:19:49;;;;;;;;;;;21.90;79.40;;;;;;5013390;28;1073;-71
2021/08/04 14:22:15;;;;;;;;;;;21.90;79.50;;;;;;5013145;28;1061;-69
2021/08/04 14:24:40;;;;;;;;;;;21.90;79.40;;;;;;4995672;28;1070;-70
2021/08/04 14:27:05;;;;;;;;;;;21.90;79.10;;;;;;5012672;28;1220;-70
2021/08/04 14:29:31;;;;;;;;;;;21.90;79.20;;;;;;5013394;28;1159;-71